Time;durP1;ratioP1;P1;durP2;ratioP2;P2;SDS_P1;SDS_P2;PMS_P1;PMS_P2;Temp;Humidity;BMP_temperature;BMP_pressure;BME280_temperature;BME280_humidity;BME280_pressure;Samples;Min_cycle;Max_cycle;Signal;HPM_P1;HPM_P2
2024/01/14 00:01:54;;;;;;;46.27;14.57;;;-5.90;99.90;;;;;;4980414;28;20459;-61
2024/01/14 00:04:20;;;;;;;51.33;17.00;;;-5.90;99.90;;;;;;4989444;28;20198;-60
2024/01/14 00:06:45;;;;;;;52.93;16.87;;;-6.00;99.90;;;;;;4987806;28;20427;-61
2024/01/14 00:09:12;;;;;;;49.90;16.53;;;-6.00;99.90;;;;;;4986197;28;20684;-62
2024/01/14 00:11:38;;;;;;;45.27;16.83;;;-6.00;99.90;;;;;;4983983;28;20423;-62
2024/01/14 00:14:03;;;;;;;43.60;15.03;;;-6.00;99.90;;;;;;4989168;28;20417;-61
2024/01/14 00:16:34;;;;;;;46.53;17.33;;;-6.00;99.90;;;;;;4984742;28;20446;-60
2024/01/14 00:19:00;;;;;;;51.57;18.10;;;-6.00;99.90;;;;;;4983981;28;20175;-60
2024/01/14 00:21:26;;;;;;;44.10;15.93;;;-5.90;99.90;;;;;;4986139;28;20415;-61
2024/01/14 00:23:51;;;;;;;43.27;15.63;;;-5.90;99.90;;;;;;4988102;28;20459;-60
2024/01/14 00:26:17;;;;;;;48.47;17.40;;;-6.00;99.90;;;;;;4986824;28;20182;-59
2024/01/14 00:28:42;;;;;;;48.43;15.97;;;-6.00;99.90;;;;;;4984755;28;20233;-61
2024/01/14 00:31:08;;;;;;;49.33;16.07;;;-6.00;99.90;;;;;;4987690;28;20190;-61
2024/01/14 00:33:34;;;;;;;55.67;16.93;;;-6.00;99.90;;;;;;4982122;28;20175;-61
2024/01/14 00:36:03;;;;;;;41.53;14.50;;;-6.00;99.90;;;;;;4987431;28;20232;-61
2024/01/14 00:38:29;;;;;;;47.70;16.17;;;-6.00;99.90;;;;;;4988325;28;20593;-61
2024/01/14 00:40:54;;;;;;;42.47;15.77;;;-6.00;99.90;;;;;;4985951;28;20423;-61
2024/01/14 00:43:20;;;;;;;46.70;16.17;;;-6.00;99.90;;;;;;4984402;28;20202;-61
2024/01/14 00:45:46;;;;;;;39.87;15.37;;;-6.00;99.90;;;;;;4987564;28;20714;-60
2024/01/14 00:48:11;;;;;;;43.77;15.47;;;-6.00;99.90;;;;;;4987883;28;20386;-60
2024/01/14 00:50:37;;;;;;;34.53;13.53;;;-6.00;99.90;;;;;;4982046;28;20647;-61
2024/01/14 00:53:03;;;;;;;40.67;15.30;;;-6.00;99.90;;;;;;4984547;28;20179;-61
2024/01/14 00:55:28;;;;;;;40.33;14.40;;;-6.00;99.90;;;;;;4986072;28;20233;-61
2024/01/14 00:57:54;;;;;;;40.50;14.33;;;-6.00;99.90;;;;;;4987111;28;21144;-62
2024/01/14 01:00:20;;;;;;;46.73;14.27;;;-6.00;99.90;;;;;;4983173;28;20175;-60
2024/01/14 01:02:45;;;;;;;42.93;15.63;;;-6.00;99.90;;;;;;4986758;28;20665;-60
2024/01/14 01:05:11;;;;;;;44.33;17.10;;;-6.00;99.90;;;;;;4992052;28;20593;-60
2024/01/14 01:07:36;;;;;;;41.90;15.60;;;-6.00;99.90;;;;;;4990210;28;20789;-59
2024/01/14 01:10:03;;;;;;;39.97;14.33;;;-6.00;99.90;;;;;;4990115;28;20178;-60
2024/01/14 01:12:28;;;;;;;39.70;14.50;;;-6.00;99.90;;;;;;4992422;28;20223;-59
2024/01/14 01:14:54;;;;;;;36.23;14.47;;;-6.00;99.90;;;;;;4990622;28;20835;-60
2024/01/14 01:17:20;;;;;;;36.83;14.80;;;-5.90;99.90;;;;;;4985739;28;20259;-60
2024/01/14 01:19:46;;;;;;;42.50;16.73;;;-5.90;99.90;;;;;;4983681;28;20450;-60
2024/01/14 01:22:12;;;;;;;39.40;14.63;;;-5.90;99.90;;;;;;4990195;28;20173;-59
2024/01/14 01:24:38;;;;;;;43.10;16.10;;;-5.90;99.90;;;;;;4983814;28;20495;-62
2024/01/14 01:27:04;;;;;;;45.20;15.40;;;-5.90;99.90;;;;;;4984269;28;20202;-61
2024/01/14 01:29:30;;;;;;;37.20;14.30;;;-5.80;99.90;;;;;;4988015;28;20959;-61
2024/01/14 01:31:56;;;;;;;36.97;14.67;;;-5.80;99.90;;;;;;4991424;28;20420;-62
2024/01/14 01:34:21;;;;;;;43.73;15.27;;;-5.80;99.90;;;;;;4990751;28;20178;-59
2024/01/14 01:36:47;;;;;;;44.80;14.93;;;-5.80;99.90;;;;;;4989396;28;20175;-62
2024/01/14 01:39:14;;;;;;;42.47;14.33;;;-5.80;99.90;;;;;;4986326;28;20642;-63
2024/01/14 01:41:39;;;;;;;41.87;14.57;;;-5.80;99.90;;;;;;4988465;28;20350;-62
2024/01/14 01:44:05;;;;;;;43.20;14.40;;;-5.80;99.90;;;;;;4989896;28;20535;-62
2024/01/14 01:46:32;;;;;;;41.03;14.90;;;-5.90;99.90;;;;;;4990860;28;20197;-60
2024/01/14 01:48:59;;;;;;;34.87;14.50;;;-5.90;99.90;;;;;;4991506;28;20396;-62
2024/01/14 01:51:25;;;;;;;35.63;13.50;;;-5.90;99.90;;;;;;4990224;28;22180;-62
2024/01/14 01:53:51;;;;;;;39.13;13.93;;;-6.00;99.90;;;;;;4985740;28;22181;-62
2024/01/14 01:56:17;;;;;;;38.90;14.40;;;-6.00;99.90;;;;;;4989639;28;20387;-61
2024/01/14 01:58:43;;;;;;;33.20;13.87;;;-6.00;99.90;;;;;;4986061;28;20204;-62
2024/01/14 02:01:09;;;;;;;39.87;15.17;;;-6.00;99.90;;;;;;4987371;28;20493;-63
2024/01/14 02:03:36;;;;;;;44.03;14.93;;;-6.00;99.90;;;;;;4987720;28;20460;-62
2024/01/14 02:06:02;;;;;;;41.90;15.50;;;-6.00;99.90;;;;;;4990220;28;20412;-61
2024/01/14 02:08:28;;;;;;;44.07;14.87;;;-6.00;99.90;;;;;;4991318;28;20495;-62
2024/01/14 02:10:54;;;;;;;48.80;17.10;;;-6.00;99.90;;;;;;4983379;28;20430;-63
2024/01/14 02:13:20;;;;;;;51.13;16.23;;;-6.00;99.90;;;;;;4987043;28;20688;-62
2024/01/14 02:15:46;;;;;;;36.90;13.20;;;-6.00;99.90;;;;;;4984170;28;20178;-62
2024/01/14 02:18:11;;;;;;;42.37;15.20;;;-6.00;99.90;;;;;;4990864;28;20449;-62
2024/01/14 02:20:37;;;;;;;40.03;14.43;;;-6.00;99.90;;;;;;4985690;28;20234;-62
2024/01/14 02:23:06;;;;;;;46.63;17.03;;;-5.90;99.90;;;;;;4986609;28;20299;-60
2024/01/14 02:25:32;;;;;;;42.70;13.90;;;-5.90;99.90;;;;;;4986929;28;20253;-58
2024/01/14 02:27:58;;;;;;;40.03;13.50;;;-5.90;99.90;;;;;;4989570;28;20471;-62
2024/01/14 02:30:23;;;;;;;39.40;15.60;;;-5.90;99.90;;;;;;4987513;28;20413;-61
2024/01/14 02:32:50;;;;;;;42.77;16.40;;;-5.90;99.90;;;;;;4984918;28;20187;-60
2024/01/14 02:35:16;;;;;;;43.60;14.40;;;-5.90;99.90;;;;;;4988274;28;20182;-61
2024/01/14 02:37:45;;;;;;;33.00;12.57;;;-5.90;99.90;;;;;;4984281;28;20456;-62
2024/01/14 02:40:11;;;;;;;41.10;15.00;;;-5.90;99.90;;;;;;4984704;28;20420;-63
2024/01/14 02:42:38;;;;;;;50.07;16.27;;;-5.90;99.90;;;;;;4990199;28;20417;-62
2024/01/14 02:45:04;;;;;;;49.20;16.37;;;-5.90;99.90;;;;;;4988946;28;20438;-62
2024/01/14 02:47:30;;;;;;;46.13;16.23;;;-5.80;99.90;;;;;;4988445;28;20493;-62
2024/01/14 02:49:55;;;;;;;44.10;16.40;;;-5.80;99.90;;;;;;4986565;28;20418;-61
2024/01/14 02:52:21;;;;;;;38.90;15.07;;;-5.80;99.90;;;;;;4990094;28;20221;-59
2024/01/14 02:54:46;;;;;;;48.77;16.53;;;-5.80;99.90;;;;;;4989197;28;20182;-60
2024/01/14 02:57:12;;;;;;;37.30;13.60;;;-5.80;99.90;;;;;;4982977;28;20687;-61
2024/01/14 02:59:37;;;;;;;43.17;16.07;;;-5.80;99.90;;;;;;4986933;28;20191;-60
2024/01/14 03:02:03;;;;;;;37.73;16.00;;;-5.80;99.90;;;;;;4986848;28;20583;-60
2024/01/14 03:04:29;;;;;;;40.70;15.40;;;-5.90;99.90;;;;;;4987718;28;20221;-61
2024/01/14 03:06:54;;;;;;;44.97;15.50;;;-5.90;99.90;;;;;;4984165;28;20221;-60
2024/01/14 03:09:20;;;;;;;39.40;15.93;;;-5.90;99.90;;;;;;4985770;28;20236;-61
2024/01/14 03:11:46;;;;;;;41.13;15.77;;;-5.80;99.90;;;;;;4987992;28;20700;-61
2024/01/14 03:14:11;;;;;;;40.80;15.50;;;-5.80;99.90;;;;;;4984540;28;21074;-61
2024/01/14 03:16:37;;;;;;;42.57;17.13;;;-5.80;99.90;;;;;;4986111;28;20414;-62
2024/01/14 03:19:03;;;;;;;44.70;14.97;;;-5.80;99.90;;;;;;4983590;28;20198;-62
2024/01/14 03:21:28;;;;;;;42.50;15.30;;;-5.80;99.90;;;;;;4980855;28;20182;-61
2024/01/14 03:23:54;;;;;;;56.53;16.47;;;-5.80;99.90;;;;;;4985830;28;20203;-61
2024/01/14 03:26:20;;;;;;;42.33;17.00;;;-5.80;99.90;;;;;;4988013;28;20183;-61
2024/01/14 03:28:45;;;;;;;40.07;14.87;;;-5.80;99.90;;;;;;4988639;28;20193;-61
2024/01/14 03:31:15;;;;;;;40.17;14.23;;;-5.80;99.90;;;;;;4988348;28;20625;-61
2024/01/14 03:33:42;;;;;;;56.27;17.50;;;-5.70;99.90;;;;;;4984347;28;20683;-62
2024/01/14 03:36:08;;;;;;;61.43;17.53;;;-5.70;99.90;;;;;;4986843;28;20936;-62
2024/01/14 03:38:34;;;;;;;46.33;16.80;;;-5.70;99.90;;;;;;4981483;28;20763;-61
2024/01/14 03:40:59;;;;;;;47.13;17.33;;;-5.70;99.90;;;;;;4984234;28;20921;-62
2024/01/14 03:43:25;;;;;;;53.93;16.13;;;-5.70;99.90;;;;;;4987122;28;20216;-61
2024/01/14 03:45:51;;;;;;;46.43;15.47;;;-5.70;99.90;;;;;;4987916;28;20183;-61
2024/01/14 03:48:16;;;;;;;44.90;15.67;;;-5.70;99.90;;;;;;4986378;28;20204;-59
2024/01/14 03:50:42;;;;;;;45.97;15.60;;;-5.70;99.90;;;;;;4988045;28;20187;-61
2024/01/14 03:53:08;;;;;;;51.17;15.10;;;-5.70;99.90;;;;;;4984691;28;20187;-61
2024/01/14 03:55:33;;;;;;;47.00;16.50;;;-5.80;99.90;;;;;;4987559;28;20956;-61
2024/01/14 03:57:59;;;;;;;42.23;15.30;;;-5.80;99.90;;;;;;4984746;28;20210;-61
2024/01/14 04:00:24;;;;;;;46.43;15.77;;;-5.90;99.90;;;;;;4982077;28;20187;-60
2024/01/14 04:02:50;;;;;;;43.23;15.17;;;-5.90;99.90;;;;;;4987359;28;20201;-60
2024/01/14 04:05:16;;;;;;;39.80;16.00;;;-5.90;99.90;;;;;;4986323;28;20188;-58
2024/01/14 04:07:41;;;;;;;44.33;15.53;;;-5.90;99.90;;;;;;4987231;28;20569;-61
2024/01/14 04:10:07;;;;;;;46.93;16.10;;;-5.90;99.90;;;;;;4987710;28;20174;-60
2024/01/14 04:12:33;;;;;;;42.23;16.47;;;-5.90;99.90;;;;;;4982338;28;20188;-57
2024/01/14 04:14:58;;;;;;;45.70;16.83;;;-5.90;99.90;;;;;;4986661;28;20448;-61
2024/01/14 04:17:24;;;;;;;43.80;16.17;;;-5.80;99.90;;;;;;4987405;28;20679;-62
2024/01/14 04:19:49;;;;;;;43.20;15.50;;;-5.80;99.90;;;;;;4983408;28;20194;-61
2024/01/14 04:22:15;;;;;;;41.97;15.73;;;-5.80;99.90;;;;;;4983401;28;20205;-61
2024/01/14 04:24:41;;;;;;;40.90;15.60;;;-5.90;99.90;;;;;;4987045;28;20246;-61
2024/01/14 04:27:07;;;;;;;46.43;16.63;;;-5.90;99.90;;;;;;4987120;28;20226;-61
2024/01/14 04:29:33;;;;;;;45.00;14.93;;;-5.90;99.90;;;;;;4988141;28;20515;-59
2024/01/14 04:32:00;;;;;;;39.00;14.43;;;-5.90;99.90;;;;;;4981350;28;20187;-64
2024/01/14 04:34:25;;;;;;;44.70;15.97;;;-5.90;99.90;;;;;;4988128;28;20414;-60
2024/01/14 04:36:51;;;;;;;43.33;14.07;;;-5.90;99.90;;;;;;4984272;28;20426;-61
2024/01/14 04:39:17;;;;;;;46.90;16.20;;;-5.90;99.90;;;;;;4987783;28;20272;-60
2024/01/14 04:41:42;;;;;;;47.03;17.63;;;-5.90;99.90;;;;;;4983123;28;20183;-60
2024/01/14 04:44:08;;;;;;;38.57;15.60;;;-5.90;99.90;;;;;;4988359;28;20687;-62
2024/01/14 04:46:33;;;;;;;40.40;15.40;;;-5.90;99.90;;;;;;4987033;28;20202;-59
2024/01/14 04:48:59;;;;;;;37.27;14.50;;;-5.90;99.90;;;;;;4987408;28;20314;-62
2024/01/14 04:51:24;;;;;;;46.70;16.07;;;-5.90;99.90;;;;;;4986885;28;20179;-62
2024/01/14 04:53:50;;;;;;;41.87;14.60;;;-5.90;99.90;;;;;;4985807;28;20189;-62
2024/01/14 04:56:16;;;;;;;44.97;15.90;;;-6.00;99.90;;;;;;4986936;28;20244;-62
2024/01/14 04:58:41;;;;;;;33.07;13.00;;;-5.90;99.90;;;;;;4988146;28;20693;-63
2024/01/14 05:01:07;;;;;;;47.40;15.37;;;-5.90;99.90;;;;;;4983822;28;20245;-63
2024/01/14 05:03:32;;;;;;;46.43;14.70;;;-6.00;99.90;;;;;;4985257;28;20218;-60
2024/01/14 05:05:58;;;;;;;44.00;15.40;;;-6.00;99.90;;;;;;4984546;28;20183;-62
2024/01/14 05:08:24;;;;;;;46.83;15.40;;;-6.00;99.90;;;;;;4985317;28;20636;-61
2024/01/14 05:10:49;;;;;;;35.50;13.87;;;-6.00;99.90;;;;;;4984129;28;20210;-62
2024/01/14 05:13:15;;;;;;;43.53;14.73;;;-6.00;99.90;;;;;;4981960;28;20205;-60
2024/01/14 05:15:40;;;;;;;44.13;15.37;;;-6.00;99.90;;;;;;4981830;28;20179;-62
2024/01/14 05:18:06;;;;;;;57.07;16.43;;;-6.10;99.90;;;;;;4988250;28;20209;-61
2024/01/14 05:20:32;;;;;;;48.73;17.83;;;-6.10;99.90;;;;;;4982559;28;20182;-59
2024/01/14 05:22:57;;;;;;;46.47;16.00;;;-6.10;99.90;;;;;;4979320;28;20182;-63
2024/01/14 05:25:23;;;;;;;48.10;15.50;;;-6.10;99.90;;;;;;4986990;28;20262;-62
2024/01/14 05:27:48;;;;;;;53.80;16.87;;;-6.10;99.90;;;;;;4985613;28;20211;-59
2024/01/14 05:30:14;;;;;;;61.90;17.40;;;-6.10;99.90;;;;;;4985931;28;20630;-61
2024/01/14 05:32:40;;;;;;;45.53;16.50;;;-6.10;99.90;;;;;;4982213;28;20203;-58
2024/01/14 05:35:06;;;;;;;47.90;15.93;;;-6.20;99.90;;;;;;4984563;28;20187;-59
2024/01/14 05:37:31;;;;;;;48.60;16.07;;;-6.20;99.90;;;;;;4986738;28;20300;-59
2024/01/14 05:39:57;;;;;;;55.20;17.33;;;-6.20;99.90;;;;;;4982002;28;20515;-58
2024/01/14 05:42:23;;;;;;;49.80;16.90;;;-6.20;99.90;;;;;;4984989;28;20613;-58
2024/01/14 05:44:49;;;;;;;53.53;17.60;;;-6.30;99.90;;;;;;4984048;28;20839;-58
2024/01/14 05:47:14;;;;;;;52.50;16.47;;;-6.30;99.90;;;;;;4985973;28;20234;-58
2024/01/14 05:49:40;;;;;;;48.30;16.17;;;-6.30;99.90;;;;;;4987876;28;20289;-57
2024/01/14 05:52:06;;;;;;;47.60;16.57;;;-6.30;99.90;;;;;;4990809;28;20191;-58
2024/01/14 05:54:31;;;;;;;45.37;15.70;;;-6.30;99.90;;;;;;4990913;28;20187;-60
2024/01/14 05:56:57;;;;;;;47.60;15.57;;;-6.30;99.90;;;;;;4988631;28;20202;-60
2024/01/14 05:59:23;;;;;;;51.97;15.70;;;-6.40;99.90;;;;;;4991212;28;20410;-59
2024/01/14 06:01:49;;;;;;;53.27;15.40;;;-6.40;99.90;;;;;;4987631;28;21115;-58
2024/01/14 06:04:15;;;;;;;48.50;15.27;;;-6.40;99.90;;;;;;4991098;28;20444;-60
2024/01/14 06:06:40;;;;;;;53.57;18.57;;;-6.40;99.90;;;;;;4990931;28;20849;-58
2024/01/14 06:09:06;;;;;;;44.03;15.37;;;-6.40;99.90;;;;;;4992572;28;20309;-60
2024/01/14 06:11:32;;;;;;;56.20;16.40;;;-6.40;99.90;;;;;;4986934;28;20186;-61
2024/01/14 06:13:57;;;;;;;40.80;14.57;;;-6.40;99.90;;;;;;4986458;28;20726;-60
2024/01/14 06:16:24;;;;;;;48.87;15.80;;;-6.40;99.90;;;;;;4988631;28;20182;-60
2024/01/14 06:18:50;;;;;;;48.27;15.40;;;-6.40;99.90;;;;;;4990233;28;20203;-60
2024/01/14 06:21:16;;;;;;;53.73;16.70;;;-6.40;99.90;;;;;;4987544;28;20808;-59
2024/01/14 06:23:41;;;;;;;62.60;15.87;;;-6.40;99.90;;;;;;4989270;28;20194;-60
2024/01/14 06:26:07;;;;;;;49.40;16.07;;;-6.40;99.90;;;;;;4988961;28;20186;-58
2024/01/14 06:28:33;;;;;;;42.90;15.13;;;-6.40;99.90;;;;;;4988024;28;20205;-58
2024/01/14 06:30:58;;;;;;;50.43;17.57;;;-6.40;99.90;;;;;;4988581;28;20269;-62
2024/01/14 06:33:24;;;;;;;45.90;17.20;;;-6.40;99.90;;;;;;4989398;28;20179;-60
2024/01/14 06:35:49;;;;;;;44.50;17.23;;;-6.40;99.90;;;;;;4988239;28;20203;-60
2024/01/14 06:38:15;;;;;;;49.53;15.70;;;-6.40;99.90;;;;;;4989211;28;20811;-60
2024/01/14 06:40:40;;;;;;;43.60;15.70;;;-6.40;99.90;;;;;;4985708;28;20273;-62
2024/01/14 06:43:08;;;;;;;55.57;16.47;;;-6.40;99.90;;;;;;4987429;28;20178;-60
2024/01/14 06:45:33;;;;;;;51.70;14.95;;;-6.40;99.90;;;;;;4989903;28;20232;-62
2024/01/14 06:47:59;;;;;;;60.93;16.20;;;-6.40;99.90;;;;;;4985139;28;20206;-62
2024/01/14 06:50:25;;;;;;;45.40;15.50;;;-6.40;99.90;;;;;;4986659;28;20183;-62
2024/01/14 06:52:51;;;;;;;46.77;16.50;;;-6.40;99.90;;;;;;4988773;28;20672;-62
2024/01/14 06:55:16;;;;;;;47.70;15.53;;;-6.40;99.90;;;;;;4987630;28;20424;-60
2024/01/14 06:57:42;;;;;;;48.57;15.00;;;-6.40;99.90;;;;;;4988908;28;20569;-60
2024/01/14 07:00:09;;;;;;;47.20;16.20;;;-6.40;99.90;;;;;;4987016;28;20179;-61
2024/01/14 07:02:35;;;;;;;51.87;18.37;;;-6.40;99.90;;;;;;4986499;28;20171;-59
2024/01/14 07:05:00;;;;;;;80.27;24.00;;;-6.40;99.90;;;;;;4987668;28;20431;-58
2024/01/14 07:07:27;;;;;;;59.33;20.97;;;-6.40;99.90;;;;;;4989455;28;20961;-60
2024/01/14 07:09:53;;;;;;;48.93;16.37;;;-6.40;99.90;;;;;;4985311;28;20441;-61
2024/01/14 07:12:19;;;;;;;52.10;17.60;;;-6.30;99.90;;;;;;4984496;28;20418;-61
2024/01/14 07:14:44;;;;;;;59.60;16.43;;;-6.30;99.90;;;;;;4989632;28;20190;-60
2024/01/14 07:17:10;;;;;;;53.63;17.07;;;-6.30;99.90;;;;;;4987819;28;20428;-60
2024/01/14 07:19:35;;;;;;;43.67;17.10;;;-6.20;99.90;;;;;;4983611;28;20175;-61
2024/01/14 07:22:02;;;;;;;50.13;16.47;;;-6.20;99.90;;;;;;4982518;28;20278;-59
2024/01/14 07:24:28;;;;;;;53.83;17.10;;;-6.20;99.90;;;;;;4984189;28;20198;-60
2024/01/14 07:26:53;;;;;;;49.50;15.53;;;-6.10;99.90;;;;;;4986282;28;20480;-60
2024/01/14 07:29:19;;;;;;;52.17;15.03;;;-6.10;99.90;;;;;;4988370;28;20187;-60
2024/01/14 07:31:44;;;;;;;48.37;16.77;;;-6.10;99.90;;;;;;4982000;28;20175;-60
2024/01/14 07:34:10;;;;;;;43.53;15.60;;;-6.10;99.90;;;;;;4989098;28;20183;-61
2024/01/14 07:36:36;;;;;;;52.37;15.97;;;-6.10;99.90;;;;;;4987896;28;20581;-60
2024/01/14 07:39:03;;;;;;;49.37;16.67;;;-6.10;99.90;;;;;;4986438;28;20214;-60
2024/01/14 07:41:28;;;;;;;53.17;17.53;;;-6.10;99.90;;;;;;4986980;28;20253;-61
2024/01/14 07:43:54;;;;;;;52.63;17.30;;;-6.10;99.90;;;;;;4988490;28;20544;-61
2024/01/14 07:46:20;;;;;;;49.17;16.33;;;-6.00;99.90;;;;;;4988518;28;20796;-60
2024/01/14 07:48:46;;;;;;;49.60;15.53;;;-6.10;99.90;;;;;;4987638;28;20547;-60
2024/01/14 07:51:12;;;;;;;48.80;14.83;;;-6.10;99.90;;;;;;4983213;28;20517;-58
2024/01/14 07:53:37;;;;;;;40.40;14.33;;;-6.00;99.90;;;;;;4988363;28;20419;-63
2024/01/14 07:56:03;;;;;;;41.27;14.60;;;-6.00;99.90;;;;;;4979928;28;20186;-62
2024/01/14 07:58:29;;;;;;;51.10;17.67;;;-5.90;99.90;;;;;;4987578;28;20198;-61
2024/01/14 08:00:55;;;;;;;42.83;15.40;;;-5.90;99.90;;;;;;4982801;28;20448;-59
2024/01/14 08:03:21;;;;;;;48.53;18.80;;;-5.80;99.90;;;;;;4988536;28;20471;-60
2024/01/14 08:05:47;;;;;;;43.90;16.20;;;-5.80;99.90;;;;;;4987112;28;21000;-58
2024/01/14 08:08:13;;;;;;;42.53;15.63;;;-5.80;99.90;;;;;;4988617;28;20680;-60
2024/01/14 08:10:38;;;;;;;57.27;20.70;;;-5.80;99.90;;;;;;4983284;28;20175;-61
2024/01/14 08:13:04;;;;;;;50.10;18.40;;;-5.80;99.90;;;;;;4986733;28;20402;-58
2024/01/14 08:15:30;;;;;;;57.47;18.20;;;-5.80;99.90;;;;;;4989118;28;20175;-60
2024/01/14 08:17:55;;;;;;;69.60;26.43;;;-5.80;99.90;;;;;;4984690;28;20286;-59
2024/01/14 08:20:21;;;;;;;67.90;22.90;;;-5.80;99.90;;;;;;4986202;28;20570;-59
2024/01/14 08:22:47;;;;;;;53.23;21.50;;;-5.80;99.90;;;;;;4981600;28;20185;-58
2024/01/14 08:25:12;;;;;;;60.27;17.30;;;-5.70;99.90;;;;;;4986156;28;20604;-60
2024/01/14 08:27:39;;;;;;;64.07;20.50;;;-5.70;99.90;;;;;;4985310;28;20198;-60
2024/01/14 08:30:06;;;;;;;61.67;21.80;;;-5.70;99.90;;;;;;4982409;28;20187;-58
2024/01/14 08:32:31;;;;;;;66.57;22.47;;;-5.60;99.90;;;;;;4984441;28;20395;-58
2024/01/14 08:34:57;;;;;;;63.47;22.47;;;-5.60;99.90;;;;;;4985702;28;20487;-59
2024/01/14 08:37:23;;;;;;;70.77;20.33;;;-5.60;99.90;;;;;;4988171;28;20203;-59
2024/01/14 08:39:50;;;;;;;54.97;19.47;;;-5.60;99.90;;;;;;4986354;28;20181;-57
2024/01/14 08:42:16;;;;;;;62.33;20.00;;;-5.60;99.90;;;;;;4986263;28;21067;-59
2024/01/14 08:44:42;;;;;;;60.17;20.07;;;-5.60;99.90;;;;;;4981857;28;20515;-60
2024/01/14 08:47:08;;;;;;;53.00;18.17;;;-5.50;99.90;;;;;;4984251;28;20524;-59
2024/01/14 08:49:34;;;;;;;62.57;19.43;;;-5.50;99.90;;;;;;4987572;28;20254;-59
2024/01/14 08:52:01;;;;;;;53.37;18.70;;;-5.50;99.90;;;;;;4986910;28;20968;-60
2024/01/14 08:54:30;;;;;;;58.17;19.00;;;-5.50;99.90;;;;;;4983415;28;20505;-60
2024/01/14 08:56:56;;;;;;;58.37;19.63;;;-5.50;99.90;;;;;;4985913;28;20425;-58
2024/01/14 08:59:21;;;;;;;57.77;19.80;;;-5.40;99.90;;;;;;4987468;28;20380;-60
2024/01/14 09:01:47;;;;;;;62.00;20.00;;;-5.40;99.90;;;;;;4981705;28;20183;-59
2024/01/14 09:04:13;;;;;;;56.77;20.30;;;-5.30;99.90;;;;;;4980169;28;20273;-60
2024/01/14 09:06:39;;;;;;;54.53;18.37;;;-5.20;99.90;;;;;;4983458;28;20177;-58
2024/01/14 09:09:06;;;;;;;59.80;18.30;;;-5.10;99.90;;;;;;4987421;28;20209;-61
2024/01/14 09:11:32;;;;;;;48.13;17.30;;;-5.10;99.90;;;;;;4987843;28;20425;-58
2024/01/14 09:13:58;;;;;;;67.33;20.00;;;-5.00;99.90;;;;;;4976460;28;20455;-59
2024/01/14 09:16:24;;;;;;;57.00;18.83;;;-5.00;99.90;;;;;;4987544;28;20761;-59
2024/01/14 09:18:50;;;;;;;51.83;18.50;;;-4.90;99.90;;;;;;4982122;28;20263;-61
2024/01/14 09:21:16;;;;;;;62.80;19.73;;;-4.80;99.90;;;;;;4978160;28;21019;-60
2024/01/14 09:23:41;;;;;;;43.20;17.53;;;-4.80;99.90;;;;;;4986761;28;20199;-59
2024/01/14 09:26:07;;;;;;;49.97;16.33;;;-4.70;99.90;;;;;;4986626;28;20434;-60
2024/01/14 09:28:35;;;;;;;50.40;18.03;;;-4.70;99.90;;;;;;4990511;28;20230;-58
2024/01/14 09:31:00;;;;;;;64.13;24.00;;;-4.60;99.90;;;;;;4988705;28;20230;-58
2024/01/14 09:33:26;;;;;;;53.83;20.37;;;-4.60;99.90;;;;;;4989537;28;20410;-61
2024/01/14 09:35:52;;;;;;;45.60;16.20;;;-4.60;99.90;;;;;;4986768;28;20214;-57
2024/01/14 09:38:17;;;;;;;47.10;17.27;;;-4.70;99.90;;;;;;4982236;28;20282;-57
2024/01/14 09:40:43;;;;;;;45.70;17.03;;;-4.70;99.90;;;;;;4989351;28;20205;-58
2024/01/14 09:43:13;;;;;;;48.40;17.80;;;-4.60;99.90;;;;;;4989757;28;20174;-59
2024/01/14 09:45:40;;;;;;;49.30;15.77;;;-4.60;99.90;;;;;;4990486;28;20175;-59
2024/01/14 09:48:08;;;;;;;46.97;17.53;;;-4.60;99.90;;;;;;4981468;28;20453;-60
2024/01/14 09:50:35;;;;;;;54.80;16.87;;;-4.50;99.90;;;;;;4990297;28;20425;-59
2024/01/14 09:53:04;;;;;;;46.67;16.33;;;-4.40;99.90;;;;;;4990107;28;20429;-59
2024/01/14 09:55:30;;;;;;;43.57;16.27;;;-4.40;99.90;;;;;;4984322;28;20430;-57
2024/01/14 09:57:59;;;;;;;49.17;18.57;;;-4.30;99.90;;;;;;4988479;28;21016;-58
2024/01/14 10:00:25;;;;;;;46.47;16.13;;;-4.30;99.90;;;;;;4988093;28;20790;-60
2024/01/14 10:02:51;;;;;;;52.27;16.77;;;-4.30;99.90;;;;;;4985795;28;20425;-59
2024/01/14 10:05:17;;;;;;;41.20;16.07;;;-4.20;99.90;;;;;;4988634;28;20458;-59
2024/01/14 10:07:44;;;;;;;54.30;17.10;;;-4.20;99.90;;;;;;4989407;28;21031;-59
2024/01/14 10:10:10;;;;;;;48.63;17.83;;;-4.20;99.90;;;;;;4986212;28;20440;-59
2024/01/14 10:12:37;;;;;;;45.30;17.03;;;-4.20;99.90;;;;;;4987887;28;20434;-59
2024/01/14 10:15:04;;;;;;;55.23;17.30;;;-4.10;99.90;;;;;;4989859;28;20451;-60
2024/01/14 10:17:31;;;;;;;48.17;17.70;;;-4.10;99.90;;;;;;4985434;28;20992;-57
2024/01/14 10:19:57;;;;;;;46.30;17.53;;;-4.00;99.90;;;;;;4987862;28;21142;-59
2024/01/14 10:22:27;;;;;;;43.73;17.40;;;-3.90;99.90;;;;;;4988323;28;20514;-59
2024/01/14 10:24:55;;;;;;;45.20;16.73;;;-3.90;99.90;;;;;;4986373;28;20216;-60
2024/01/14 10:27:22;;;;;;;52.30;18.97;;;-3.80;99.90;;;;;;4988665;28;20464;-60
2024/01/14 10:29:49;;;;;;;48.40;19.37;;;-3.60;99.90;;;;;;4983230;28;20785;-57
2024/01/14 10:32:15;;;;;;;60.50;21.27;;;-3.50;99.90;;;;;;4985633;28;20986;-61
2024/01/14 10:34:41;;;;;;;45.47;17.63;;;-3.40;99.90;;;;;;4987365;28;20421;-61
2024/01/14 10:37:07;;;;;;;47.73;17.30;;;-3.30;99.90;;;;;;4986210;28;20437;-59
2024/01/14 10:39:35;;;;;;;53.37;19.67;;;-3.20;99.90;;;;;;4989043;28;20422;-58
2024/01/14 10:42:01;;;;;;;57.77;20.00;;;-3.00;99.90;;;;;;4986182;28;20528;-59
2024/01/14 10:44:27;;;;;;;53.37;18.00;;;-2.80;99.90;;;;;;4989651;28;20474;-59
2024/01/14 10:46:53;;;;;;;53.67;17.00;;;-2.70;99.70;;;;;;4986066;28;20459;-60
2024/01/14 10:49:25;;;;;;;44.20;16.90;;;-2.60;99.90;;;;;;4990013;28;20420;-59
2024/01/14 10:52:10;;;;;;;44.13;17.07;;;-2.40;99.40;;;;;;4987771;28;20434;-60
2024/01/14 10:54:49;;;;;;;51.80;18.87;;;-2.30;97.60;;;;;;4983539;28;20820;-60
2024/01/14 10:57:34;;;;;;;41.00;16.60;;;-2.20;97.00;;;;;;4984784;28;21037;-57
2024/01/14 11:00:08;;;;;;;48.63;18.00;;;-2.00;95.90;;;;;;4987382;28;20927;-58
2024/01/14 11:02:36;;;;;;;53.13;19.27;;;-1.90;95.00;;;;;;4982756;28;20418;-58
2024/01/14 11:05:05;;;;;;;46.80;16.43;;;-1.80;93.60;;;;;;4988161;28;20466;-57
2024/01/14 11:07:33;;;;;;;48.17;18.23;;;-1.70;92.20;;;;;;4986276;28;20461;-57
2024/01/14 11:10:00;;;;;;;46.07;18.30;;;-1.60;91.50;;;;;;4983597;28;20449;-59
2024/01/14 11:12:47;;;;;;;51.67;19.63;;;-1.50;91.10;;;;;;4988194;28;20444;-58
2024/01/14 11:15:24;;;;;;;46.97;19.30;;;-1.40;90.30;;;;;;4989315;28;20425;-59
2024/01/14 11:17:55;;;;;;;52.13;20.17;;;-1.20;90.80;;;;;;4984944;28;20447;-60
2024/01/14 11:20:25;;;;;;;51.57;18.23;;;-1.10;90.90;;;;;;4984748;28;20944;-59
2024/01/14 11:22:52;;;;;;;49.47;16.53;;;-0.90;90.10;;;;;;4987984;28;20416;-61
2024/01/14 11:25:21;;;;;;;43.93;16.97;;;-0.70;87.50;;;;;;4983672;28;20561;-56
2024/01/14 11:27:47;;;;;;;42.57;17.20;;;-0.60;85.20;;;;;;4988635;28;20504;-56
2024/01/14 11:30:19;;;;;;;38.30;17.53;;;-0.40;83.80;;;;;;4982351;28;20434;-60
2024/01/14 11:32:45;;;;;;;39.33;16.90;;;-0.30;80.20;;;;;;4984720;28;20205;-64
2024/01/14 11:35:32;;;;;;;46.90;17.77;;;-0.20;79.20;;;;;;4984389;28;20430;-62
2024/01/14 11:37:58;;;;;;;40.43;17.20;;;-0.10;78.50;;;;;;4981661;28;20449;-59
2024/01/14 11:40:26;;;;;;;39.47;14.77;;;0.00;78.20;;;;;;4980768;28;20488;-63
2024/01/14 11:43:00;;;;;;;46.77;16.50;;;0.10;77.10;;;;;;4985448;28;20516;-62
2024/01/14 11:45:25;;;;;;;37.93;16.50;;;0.10;76.00;;;;;;4980896;28;20582;-59
2024/01/14 11:47:52;;;;;;;38.70;15.27;;;0.20;75.20;;;;;;4975160;28;20538;-62
2024/01/14 11:50:23;;;;;;;45.07;16.80;;;0.30;74.30;;;;;;4976332;28;20185;-57
2024/01/14 11:52:53;;;;;;;36.60;15.70;;;0.30;73.10;;;;;;4982790;28;20502;-57
2024/01/14 11:55:23;;;;;;;38.07;16.20;;;0.30;73.30;;;;;;4979500;28;20426;-58
2024/01/14 11:57:49;;;;;;;43.23;16.53;;;0.30;72.30;;;;;;4984686;28;21148;-55
2024/01/14 12:00:16;;;;;;;29.30;14.60;;;0.30;72.00;;;;;;4983993;28;20419;-59
2024/01/14 12:02:42;;;;;;;38.13;16.33;;;0.20;72.10;;;;;;4982822;28;20257;-59
2024/01/14 12:05:15;;;;;;;38.40;14.73;;;0.10;72.20;;;;;;4983150;28;20572;-58
2024/01/14 12:07:42;;;;;;;43.87;15.63;;;0.00;72.80;;;;;;4985184;28;20200;-59
2024/01/14 12:10:12;;;;;;;34.37;15.00;;;-0.10;73.40;;;;;;4981120;28;20960;-63
2024/01/14 12:12:37;;;;;;;35.73;13.60;;;-0.10;74.50;;;;;;4985387;28;20445;-58
2024/01/14 12:15:03;;;;;;;41.27;15.60;;;-0.20;74.90;;;;;;4983238;28;20450;-58
2024/01/14 12:17:29;;;;;;;41.87;15.80;;;-0.30;74.70;;;;;;4976757;28;20852;-62
2024/01/14 12:20:04;;;;;;;45.20;16.67;;;-0.40;76.40;;;;;;4983898;28;20426;-62
2024/01/14 12:22:30;;;;;;;33.23;14.50;;;-0.50;78.40;;;;;;4987452;28;20186;-62
2024/01/14 12:24:55;;;;;;;42.97;15.83;;;-0.50;79.70;;;;;;4983067;28;20470;-61